createdAt,value
2023-11-16T00:00:18.454Z,0.65
2023-11-16T00:02:46.546Z,0.80
2023-11-16T00:05:14.708Z,0.63
2023-11-16T00:07:42.614Z,0.70
2023-11-16T00:10:10.306Z,1.10
2023-11-16T00:12:38.287Z,0.80
2023-11-16T00:15:09.506Z,0.57
2023-11-16T00:17:38.667Z,0.80
2023-11-16T00:20:10.481Z,0.55
2023-11-16T00:22:37.997Z,0.80
2023-11-16T00:25:08.516Z,1.02
2023-11-16T00:27:36.147Z,1.00
2023-11-16T00:30:06.775Z,0.93
2023-11-16T00:32:34.088Z,0.43
2023-11-16T00:35:01.628Z,0.70
2023-11-16T00:37:28.826Z,0.73
2023-11-16T00:39:59.225Z,0.82
2023-11-16T00:42:26.918Z,0.77
2023-11-16T00:44:54.387Z,0.77
2023-11-16T00:47:21.964Z,0.60
2023-11-16T00:49:49.541Z,0.63
2023-11-16T00:52:20.484Z,0.68
2023-11-16T00:54:49.997Z,0.50
2023-11-16T00:57:21.493Z,0.47
2023-11-16T00:59:48.756Z,0.73
2023-11-16T01:02:16.212Z,0.60
2023-11-16T01:04:45.778Z,0.90
2023-11-16T01:07:13.416Z,0.70
2023-11-16T01:09:40.786Z,0.60
2023-11-16T01:12:15.688Z,0.55
2023-11-16T01:14:43.956Z,0.50
2023-11-16T01:17:19.752Z,0.70
2023-11-16T01:19:48.693Z,0.52
2023-11-16T01:22:17.500Z,0.70
2023-11-16T01:24:46.254Z,0.38
2023-11-16T01:27:19.803Z,0.73
2023-11-16T01:29:47.612Z,0.77
2023-11-16T01:32:15.245Z,0.30
2023-11-16T01:34:44.128Z,0.50
2023-11-16T01:37:11.909Z,0.30
2023-11-16T01:39:40.041Z,0.60
2023-11-16T01:42:08.646Z,0.52
2023-11-16T01:44:35.481Z,0.50
2023-11-16T01:47:04.324Z,0.60
2023-11-16T01:49:32.107Z,0.50
2023-11-16T01:51:59.521Z,0.80
2023-11-16T01:54:28.579Z,0.90
2023-11-16T01:56:55.937Z,0.30
2023-11-16T01:59:23.602Z,0.50
2023-11-16T02:01:51.136Z,0.47
2023-11-16T02:04:19.085Z,0.70
2023-11-16T02:06:46.446Z,0.68
2023-11-16T02:09:14.739Z,0.60
2023-11-16T02:11:42.036Z,0.80
2023-11-16T02:14:11.846Z,0.73
2023-11-16T02:16:38.724Z,0.80
2023-11-16T02:19:15.144Z,0.70
2023-11-16T02:21:45.497Z,0.82
2023-11-16T02:24:14.004Z,0.57
2023-11-16T02:26:43.459Z,0.50
2023-11-16T02:29:11.033Z,0.63
2023-11-16T02:31:39.023Z,0.70
2023-11-16T02:34:07.498Z,0.40
2023-11-16T02:36:35.333Z,1.02
2023-11-16T02:39:02.789Z,0.73
2023-11-16T02:41:30.440Z,1.02
2023-11-16T02:43:57.670Z,0.70
2023-11-16T02:46:24.826Z,0.65
2023-11-16T02:48:52.083Z,0.70
2023-11-16T02:51:20.868Z,0.75
2023-11-16T02:53:47.741Z,1.08
2023-11-16T02:56:14.921Z,0.68
2023-11-16T02:58:44.735Z,0.60
2023-11-16T03:01:14.171Z,0.77
2023-11-16T03:03:41.890Z,0.55
2023-11-16T03:06:10.276Z,0.47
2023-11-16T03:08:38.131Z,0.50
2023-11-16T03:11:07.090Z,0.60
2023-11-16T03:13:34.337Z,1.00
2023-11-16T03:16:06.085Z,0.68
2023-11-16T03:18:33.055Z,0.80
2023-11-16T03:21:00.292Z,1.15
2023-11-16T03:23:27.140Z,0.73
2023-11-16T03:25:55.356Z,1.10
2023-11-16T03:28:22.726Z,0.90
2023-11-16T03:30:50.848Z,0.80
2023-11-16T03:33:18.227Z,0.68
2023-11-16T03:35:50.184Z,0.52
2023-11-16T03:38:21.035Z,0.60
2023-11-16T03:40:50.421Z,0.77
2023-11-16T03:43:17.913Z,0.90
2023-11-16T03:45:45.750Z,0.60
2023-11-16T03:48:13.412Z,1.00
2023-11-16T03:50:44.002Z,0.50
2023-11-16T03:53:11.652Z,0.70
2023-11-16T03:55:38.958Z,1.25
2023-11-16T03:58:06.183Z,0.98
2023-11-16T04:00:33.628Z,0.65
2023-11-16T04:03:02.127Z,0.50
2023-11-16T04:05:29.177Z,0.47
2023-11-16T04:07:57.156Z,0.60
2023-11-16T04:10:24.428Z,0.70
2023-11-16T04:12:51.382Z,0.63
2023-11-16T04:15:18.980Z,0.50
2023-11-16T04:17:46.540Z,0.75
2023-11-16T04:20:14.609Z,0.60
2023-11-16T04:22:42.176Z,0.70
2023-11-16T04:25:20.240Z,0.70
2023-11-16T04:27:48.876Z,1.65
2023-11-16T04:30:17.297Z,0.85
2023-11-16T04:32:46.679Z,1.30
2023-11-16T04:35:16.997Z,1.00
2023-11-16T04:37:44.419Z,0.80
2023-11-16T04:40:15.280Z,0.82
2023-11-16T04:42:43.198Z,0.85
2023-11-16T04:45:14.211Z,0.93
2023-11-16T04:47:43.900Z,1.00
2023-11-16T04:50:11.902Z,0.85
2023-11-16T04:52:39.138Z,1.05
2023-11-16T04:55:06.469Z,1.00
2023-11-16T04:57:33.702Z,1.00
2023-11-16T05:00:01.783Z,1.27
2023-11-16T05:02:29.057Z,0.90
2023-11-16T05:04:56.702Z,1.23
2023-11-16T05:07:24.474Z,1.00
2023-11-16T05:09:54.104Z,0.80
2023-11-16T05:12:22.690Z,0.70
2023-11-16T05:14:49.831Z,0.90
2023-11-16T05:17:17.118Z,0.90
2023-11-16T05:19:45.757Z,0.90
2023-11-16T05:22:13.001Z,0.88
2023-11-16T05:24:40.251Z,1.10
2023-11-16T05:27:08.637Z,1.23
2023-11-16T05:29:36.028Z,1.00
2023-11-16T05:32:03.167Z,0.90
2023-11-16T05:34:30.308Z,1.15
2023-11-16T05:36:58.429Z,0.85
2023-11-16T05:39:25.665Z,1.23
2023-11-16T05:41:54.236Z,0.90
2023-11-16T05:44:22.245Z,1.20
2023-11-16T05:46:49.505Z,1.00
2023-11-16T05:49:16.360Z,1.30
2023-11-16T05:51:43.768Z,0.90
2023-11-16T05:54:11.671Z,0.80
2023-11-16T05:56:42.244Z,0.90
2023-11-16T05:59:10.070Z,1.00
2023-11-16T06:01:39.057Z,1.08
2023-11-16T06:04:09.521Z,0.95
2023-11-16T06:06:37.297Z,1.52
2023-11-16T06:09:05.014Z,0.80
2023-11-16T06:11:32.309Z,1.35
2023-11-16T06:14:01.066Z,1.20
2023-11-16T06:16:28.375Z,1.10
2023-11-16T06:18:57.524Z,0.93
2023-11-16T06:21:24.666Z,1.35
2023-11-16T06:23:51.970Z,1.30
2023-11-16T06:26:19.369Z,1.40
2023-11-16T06:28:46.610Z,1.10
2023-11-16T06:31:13.725Z,1.10
2023-11-16T06:33:40.961Z,1.20
2023-11-16T06:36:08.467Z,1.00
2023-11-16T06:38:36.192Z,1.25
2023-11-16T06:41:03.461Z,1.35
2023-11-16T06:43:30.685Z,1.40
2023-11-16T06:46:01.303Z,1.30
2023-11-16T06:48:28.465Z,1.23
2023-11-16T06:50:56.173Z,1.20
2023-11-16T06:53:24.197Z,1.00
2023-11-16T06:55:53.737Z,1.23
2023-11-16T06:58:24.332Z,1.60
2023-11-16T07:00:52.692Z,1.02
2023-11-16T07:03:20.553Z,1.20
2023-11-16T07:05:47.860Z,1.10
2023-11-16T07:08:15.935Z,1.08
2023-11-16T07:10:43.268Z,1.15
2023-11-16T07:13:15.868Z,0.90
2023-11-16T07:15:45.905Z,1.23
2023-11-16T07:18:14.213Z,1.50
2023-11-16T07:20:42.153Z,1.30
2023-11-16T07:23:10.021Z,1.00
2023-11-16T07:25:38.805Z,1.40
2023-11-16T07:28:06.692Z,1.45
2023-11-16T07:30:36.703Z,1.42
2023-11-16T07:33:06.563Z,1.30
2023-11-16T07:35:34.881Z,1.40
2023-11-16T07:38:02.965Z,1.48
2023-11-16T07:40:30.207Z,1.58
2023-11-16T07:42:57.419Z,1.40
2023-11-16T07:45:25.907Z,1.40
2023-11-16T07:47:53.542Z,1.73
2023-11-16T07:50:20.374Z,1.60
2023-11-16T07:52:48.896Z,1.35
2023-11-16T07:55:17.705Z,1.60
2023-11-16T07:57:49.866Z,1.50
2023-11-16T08:00:24.046Z,1.75
2023-11-16T08:03:10.510Z,1.60
2023-11-16T08:05:38.933Z,1.60
2023-11-16T08:08:08.318Z,1.58
2023-11-16T08:10:35.445Z,1.92
2023-11-16T08:13:02.638Z,1.77
2023-11-16T08:15:30.221Z,2.00
2023-11-16T08:17:58.369Z,2.28
2023-11-16T08:20:30.057Z,2.10
2023-11-16T08:22:58.106Z,1.85
2023-11-16T08:25:29.897Z,1.63
2023-11-16T08:27:57.266Z,2.05
2023-11-16T08:30:24.882Z,1.60
2023-11-16T08:32:52.893Z,2.85
2023-11-16T08:35:21.042Z,2.47
2023-11-16T08:37:47.820Z,1.95
2023-11-16T08:40:19.424Z,2.03
2023-11-16T08:42:48.307Z,2.13
2023-11-16T08:45:21.407Z,2.35
2023-11-16T08:47:53.683Z,3.45
2023-11-16T08:50:22.090Z,2.47
2023-11-16T08:52:49.515Z,2.33
2023-11-16T08:55:22.332Z,2.10
2023-11-16T08:57:51.520Z,2.20
2023-11-16T09:00:28.861Z,2.40
2023-11-16T09:02:57.248Z,1.90
2023-11-16T09:05:25.049Z,2.25
2023-11-16T09:07:55.959Z,2.00
2023-11-16T09:10:24.043Z,1.75
2023-11-16T09:12:54.886Z,2.00
2023-11-16T09:15:23.227Z,1.92
2023-11-16T09:17:53.834Z,2.20
2023-11-16T09:20:21.562Z,2.13
2023-11-16T09:22:52.821Z,2.10
2023-11-16T09:25:25.134Z,2.05
2023-11-16T09:27:55.501Z,1.88
2023-11-16T09:30:24.002Z,2.00
2023-11-16T09:32:55.401Z,1.40
2023-11-16T09:35:23.172Z,1.25
2023-11-16T09:37:54.915Z,1.48
2023-11-16T09:40:25.124Z,1.20
2023-11-16T09:42:58.259Z,1.15
2023-11-16T09:45:28.940Z,0.90
2023-11-16T09:47:58.925Z,1.00
2023-11-16T09:50:27.373Z,1.30
2023-11-16T09:52:57.034Z,1.23
2023-11-16T09:55:25.462Z,1.40
2023-11-16T09:57:56.592Z,1.45
2023-11-16T10:00:24.820Z,1.20
2023-11-16T10:02:54.783Z,1.20
2023-11-16T10:05:28.106Z,1.15
2023-11-16T10:07:57.922Z,1.30
2023-11-16T10:10:31.409Z,1.17
2023-11-16T10:12:58.780Z,1.10
2023-11-16T10:15:26.162Z,1.58
2023-11-16T10:17:57.159Z,1.17
2023-11-16T10:22:55.166Z,1.35
2023-11-16T10:25:24.429Z,0.82
2023-11-16T10:27:51.940Z,1.85
2023-11-16T10:30:19.677Z,1.13
2023-11-16T10:32:51.260Z,1.05
2023-11-16T10:35:24.959Z,1.10
2023-11-16T10:37:52.958Z,1.08
2023-11-16T10:40:20.035Z,0.95
2023-11-16T10:42:48.055Z,1.08
2023-11-16T10:45:16.379Z,1.08
2023-11-16T10:47:46.981Z,1.02
2023-11-16T10:50:18.096Z,1.10
2023-11-16T10:52:46.411Z,1.42
2023-11-16T10:55:21.101Z,0.80
2023-11-16T10:57:51.303Z,1.00
2023-11-16T11:00:20.204Z,1.42
2023-11-16T11:02:48.659Z,1.02
2023-11-16T11:05:23.378Z,1.20
2023-11-16T11:07:54.174Z,1.30
2023-11-16T11:10:25.691Z,1.42
2023-11-16T11:12:53.162Z,1.30
2023-11-16T11:15:35.246Z,1.40
2023-11-16T11:18:05.878Z,1.30
2023-11-16T11:20:45.008Z,1.30
2023-11-16T11:23:17.381Z,1.20
2023-11-16T11:25:44.726Z,1.30
2023-11-16T11:28:12.567Z,0.98
2023-11-16T11:30:55.895Z,1.30
2023-11-16T11:33:45.507Z,1.30
2023-11-16T11:38:43.917Z,1.30
2023-11-16T11:41:13.813Z,1.02
2023-11-16T11:43:47.366Z,1.13
2023-11-16T11:46:19.309Z,1.17
2023-11-16T11:48:48.876Z,1.50
2023-11-16T11:51:28.019Z,1.20
2023-11-16T11:53:57.258Z,1.25
2023-11-16T11:56:24.423Z,1.30
2023-11-16T11:58:51.561Z,1.10
2023-11-16T12:01:18.782Z,1.20
2023-11-16T12:03:54.981Z,2.63
2023-11-16T12:06:28.545Z,1.05
2023-11-16T12:08:56.246Z,0.90
2023-11-16T12:11:26.903Z,1.05
2023-11-16T12:13:55.324Z,0.90
2023-11-16T12:16:26.393Z,1.20
2023-11-16T12:18:55.202Z,1.00
2023-11-16T12:21:24.543Z,1.15
2023-11-16T12:23:52.981Z,1.10
2023-11-16T12:26:20.843Z,1.02
2023-11-16T12:28:48.119Z,1.13
2023-11-16T12:31:18.617Z,1.30
2023-11-16T12:33:52.652Z,1.10
2023-11-16T12:36:21.521Z,1.00
2023-11-16T12:38:49.603Z,0.90
2023-11-16T12:41:17.311Z,1.10
2023-11-16T12:43:47.461Z,1.10
2023-11-16T12:46:15.300Z,1.10
2023-11-16T12:48:42.992Z,0.90
2023-11-16T12:51:10.734Z,0.90
2023-11-16T12:53:40.972Z,1.10
2023-11-16T12:56:08.755Z,1.20
2023-11-16T12:58:39.055Z,1.05
2023-11-16T13:01:07.864Z,1.00
2023-11-16T13:03:43.836Z,0.70
2023-11-16T13:06:16.600Z,1.65
2023-11-16T13:08:43.630Z,0.77
2023-11-16T13:11:13.272Z,0.70
2023-11-16T13:13:40.680Z,1.45
2023-11-16T13:16:09.595Z,0.90
2023-11-16T13:18:37.330Z,1.10
2023-11-16T13:21:11.371Z,0.98
2023-11-16T13:23:42.762Z,0.77
2023-11-16T13:26:10.786Z,1.13
2023-11-16T13:28:37.502Z,0.98
2023-11-16T13:31:05.050Z,1.00
2023-11-16T13:33:33.029Z,0.95
2023-11-16T13:36:00.923Z,1.00
2023-11-16T13:38:29.634Z,1.10
2023-11-16T13:40:57.137Z,1.33
2023-11-16T13:43:25.601Z,1.75
2023-11-16T13:45:53.726Z,2.72
2023-11-16T13:48:20.682Z,3.40
2023-11-16T13:50:52.611Z,3.00
2023-11-16T13:53:19.854Z,2.50
2023-11-16T13:55:47.235Z,1.67
2023-11-16T13:58:15.079Z,1.80
2023-11-16T14:00:42.928Z,2.10
2023-11-16T14:03:13.136Z,1.70
2023-11-16T14:05:41.624Z,1.48
2023-11-16T14:08:08.932Z,1.60
2023-11-16T14:10:36.249Z,1.00
2023-11-16T14:13:03.565Z,1.20
2023-11-16T14:15:33.038Z,1.00
2023-11-16T14:18:00.476Z,1.30
2023-11-16T14:20:27.686Z,1.00
2023-11-16T14:22:54.805Z,1.20
2023-11-16T14:25:27.789Z,4.18
2023-11-16T14:28:01.043Z,9.05
2023-11-16T14:30:28.250Z,2.00
2023-11-16T14:32:55.407Z,4.25
2023-11-16T14:35:23.466Z,4.90
2023-11-16T14:37:51.603Z,4.00
2023-11-16T14:40:18.882Z,1.30
2023-11-16T14:42:47.165Z,2.05
2023-11-16T14:45:14.393Z,2.05
2023-11-16T14:47:41.355Z,3.03
2023-11-16T14:50:15.487Z,1.98
2023-11-16T14:52:43.401Z,2.10
2023-11-16T14:55:11.273Z,2.88
2023-11-16T14:57:41.122Z,2.25
2023-11-16T15:00:15.522Z,2.65
2023-11-16T15:02:43.180Z,7.88
2023-11-16T15:05:11.971Z,5.40
2023-11-16T15:07:39.963Z,5.13
2023-11-16T15:10:12.426Z,2.00
2023-11-16T15:12:40.674Z,1.67
2023-11-16T15:15:10.786Z,1.83
2023-11-16T15:17:41.345Z,2.60
2023-11-16T15:20:16.422Z,2.28
2023-11-16T15:22:53.887Z,1.98
2023-11-16T15:25:20.902Z,1.50
2023-11-16T15:27:48.493Z,1.75
2023-11-16T15:30:16.571Z,1.95
2023-11-16T15:32:43.897Z,1.80
2023-11-16T15:35:11.381Z,1.85
2023-11-16T15:37:38.582Z,1.65
2023-11-16T15:40:06.831Z,1.95
2023-11-16T15:42:34.432Z,2.90
2023-11-16T15:45:02.289Z,2.17
2023-11-16T15:47:30.498Z,3.08
2023-11-16T15:49:57.738Z,2.60
2023-11-16T15:52:24.977Z,2.85
2023-11-16T15:54:52.400Z,3.05
2023-11-16T15:57:28.095Z,3.00
2023-11-16T16:00:00.061Z,3.53
2023-11-16T16:02:31.631Z,3.63
2023-11-16T16:05:03.219Z,3.17
2023-11-16T16:07:30.930Z,3.95
2023-11-16T16:09:58.542Z,3.15
2023-11-16T16:12:27.394Z,2.42
2023-11-16T16:14:54.740Z,2.50
2023-11-16T16:17:22.301Z,2.85
2023-11-16T16:19:49.563Z,3.72
2023-11-16T16:22:16.796Z,3.55
2023-11-16T16:24:44.533Z,2.67
2023-11-16T16:27:12.346Z,3.70
2023-11-16T16:29:39.811Z,3.40
2023-11-16T16:32:09.611Z,3.50
2023-11-16T16:34:36.574Z,3.28
2023-11-16T16:37:06.051Z,3.10
2023-11-16T16:39:36.786Z,2.97
2023-11-16T16:42:04.163Z,3.03
2023-11-16T16:44:32.212Z,3.10
2023-11-16T16:46:59.790Z,3.10
2023-11-16T16:49:29.211Z,3.78
2023-11-16T16:51:59.394Z,3.40
2023-11-16T16:54:26.724Z,3.00
2023-11-16T16:56:53.874Z,4.68
2023-11-16T16:59:21.005Z,5.40
2023-11-16T17:01:48.251Z,5.80
2023-11-16T17:04:15.562Z,6.57
2023-11-16T17:06:43.110Z,6.53
2023-11-16T17:09:12.605Z,6.05
2023-11-16T17:11:40.275Z,6.15
2023-11-16T17:14:07.601Z,5.25
2023-11-16T17:16:34.752Z,5.38
2023-11-16T17:19:02.183Z,47.63
2023-11-16T17:21:29.504Z,12.63
2023-11-16T17:23:56.805Z,13.82
2023-11-16T17:26:23.912Z,15.52
2023-11-16T17:28:51.758Z,11.40
2023-11-16T17:31:19.172Z,7.60
2023-11-16T17:33:46.787Z,12.35
2023-11-16T17:36:14.177Z,13.85
2023-11-16T17:38:43.892Z,7.45
2023-11-16T17:41:13.678Z,5.70
2023-11-16T17:43:40.967Z,4.72
2023-11-16T17:46:08.976Z,4.97
2023-11-16T17:48:36.476Z,4.57
2023-11-16T17:51:05.578Z,4.70
2023-11-16T17:53:33.448Z,4.80
2023-11-16T17:56:01.887Z,4.82
2023-11-16T17:58:30.391Z,4.57
2023-11-16T18:00:57.944Z,4.70
2023-11-16T18:03:25.557Z,11.30
2023-11-16T18:05:54.784Z,6.43
2023-11-16T18:08:22.227Z,7.28
2023-11-16T18:10:56.285Z,7.93
2023-11-16T18:13:23.655Z,7.18
2023-11-16T18:15:50.914Z,7.20
2023-11-16T18:18:19.231Z,8.88
2023-11-16T18:20:48.170Z,9.98
2023-11-16T18:23:15.876Z,9.27
2023-11-16T18:25:43.708Z,9.73
2023-11-16T18:28:14.232Z,13.65
2023-11-16T18:30:46.268Z,19.27
2023-11-16T18:33:14.903Z,37.78
2023-11-16T18:35:42.517Z,44.83
2023-11-16T18:38:12.037Z,35.63
2023-11-16T18:40:39.970Z,24.63
2023-11-16T18:43:12.158Z,36.08
2023-11-16T18:45:39.985Z,32.55
2023-11-16T18:48:10.512Z,31.33
2023-11-16T18:50:38.586Z,57.95
2023-11-16T18:53:05.805Z,25.55
2023-11-16T18:55:33.378Z,19.00
2023-11-16T18:58:00.685Z,13.40
2023-11-16T19:00:28.961Z,13.43
2023-11-16T19:03:17.548Z,12.45
2023-11-16T19:05:45.999Z,7.82
2023-11-16T19:08:15.719Z,7.80
2023-11-16T19:10:43.863Z,7.43
2023-11-16T19:13:13.008Z,8.38
2023-11-16T19:15:41.615Z,9.15
2023-11-16T19:18:12.083Z,8.68
2023-11-16T19:20:40.057Z,9.23
2023-11-16T19:23:14.139Z,9.52
2023-11-16T19:25:47.627Z,12.82
2023-11-16T19:28:15.002Z,13.52
2023-11-16T19:30:42.220Z,14.98
2023-11-16T19:33:10.227Z,18.90
2023-11-16T19:35:38.240Z,21.88
2023-11-16T19:38:05.435Z,15.95
2023-11-16T19:40:39.067Z,14.35
2023-11-16T19:43:08.609Z,14.50
2023-11-16T19:45:39.369Z,14.73
2023-11-16T19:48:07.182Z,18.73
2023-11-16T19:50:40.926Z,28.08
2023-11-16T19:53:08.427Z,23.88
2023-11-16T19:55:39.529Z,43.80
2023-11-16T19:58:07.335Z,17.33
2023-11-16T20:00:35.243Z,17.52
2023-11-16T20:03:03.562Z,16.73
2023-11-16T20:05:31.210Z,16.38
2023-11-16T20:07:58.375Z,15.57
2023-11-16T20:10:30.355Z,15.65
2023-11-16T20:12:58.600Z,15.38
2023-11-16T20:15:25.871Z,13.90
2023-11-16T20:17:53.084Z,14.77
2023-11-16T20:20:25.485Z,15.52
2023-11-16T20:22:54.145Z,14.18
2023-11-16T20:25:21.948Z,14.77
2023-11-16T20:27:50.028Z,14.40
2023-11-16T20:30:18.677Z,14.57
2023-11-16T20:32:47.965Z,14.77
2023-11-16T20:35:16.278Z,14.30
2023-11-16T20:37:44.460Z,14.30
2023-11-16T20:40:13.529Z,13.75
2023-11-16T20:42:47.414Z,13.23
2023-11-16T20:45:16.994Z,15.85
2023-11-16T20:47:45.326Z,16.15
2023-11-16T20:50:13.225Z,16.90
2023-11-16T20:52:40.562Z,14.93
2023-11-16T20:55:11.125Z,12.52
2023-11-16T20:57:39.102Z,11.93
2023-11-16T21:00:10.068Z,11.68
2023-11-16T21:02:40.566Z,11.75
2023-11-16T21:05:08.488Z,11.65
2023-11-16T21:07:36.108Z,12.77
2023-11-16T21:10:04.378Z,12.23
2023-11-16T21:12:34.730Z,12.43
2023-11-16T21:15:06.678Z,12.52
2023-11-16T21:17:35.563Z,13.18
2023-11-16T21:20:05.949Z,12.98
2023-11-16T21:22:33.177Z,12.85
2023-11-16T21:25:00.730Z,12.07
2023-11-16T21:27:29.544Z,12.98
2023-11-16T21:29:57.874Z,13.05
2023-11-16T21:32:24.730Z,13.32
2023-11-16T21:34:52.114Z,12.93
2023-11-16T21:37:19.556Z,14.05
2023-11-16T21:39:46.800Z,15.27
2023-11-16T21:42:14.039Z,14.43
2023-11-16T21:44:41.252Z,14.60
2023-11-16T21:47:08.495Z,15.32
2023-11-16T21:49:36.456Z,14.68
2023-11-16T21:52:03.692Z,14.48
2023-11-16T21:54:30.885Z,14.85
2023-11-16T21:56:58.136Z,14.90
2023-11-16T21:59:25.401Z,14.73
2023-11-16T22:01:52.684Z,15.88
2023-11-16T22:04:20.063Z,15.73
2023-11-16T22:06:47.407Z,14.63
2023-11-16T22:09:15.767Z,14.75
2023-11-16T22:11:43.130Z,14.90
2023-11-16T22:14:11.347Z,15.02
2023-11-16T22:16:38.979Z,13.80
2023-11-16T22:19:08.172Z,14.82
2023-11-16T22:21:37.461Z,15.13
2023-11-16T22:24:05.174Z,13.45
2023-11-16T22:26:34.085Z,13.82
2023-11-16T22:29:01.420Z,15.30
2023-11-16T22:31:29.286Z,14.05
2023-11-16T22:33:56.912Z,14.27
2023-11-16T22:36:24.272Z,14.65
2023-11-16T22:38:51.765Z,14.23
2023-11-16T22:41:18.962Z,14.68
2023-11-16T22:43:46.246Z,14.18
2023-11-16T22:46:13.773Z,13.40
2023-11-16T22:48:41.065Z,15.15
2023-11-16T22:51:08.394Z,14.07
2023-11-16T22:53:36.306Z,13.98
2023-11-16T22:56:05.299Z,14.05
2023-11-16T22:58:35.623Z,16.13
2023-11-16T23:01:03.965Z,16.08
2023-11-16T23:03:32.319Z,15.00
2023-11-16T23:06:00.513Z,15.32
2023-11-16T23:08:29.602Z,15.02
2023-11-16T23:10:58.053Z,15.27
2023-11-16T23:13:25.662Z,14.90
2023-11-16T23:15:53.217Z,14.43
2023-11-16T23:18:20.792Z,15.38
2023-11-16T23:20:48.189Z,14.32
2023-11-16T23:23:15.600Z,15.10
2023-11-16T23:25:43.085Z,13.77
2023-11-16T23:28:10.794Z,13.50
2023-11-16T23:30:40.728Z,12.15
2023-11-16T23:33:09.604Z,11.48
2023-11-16T23:35:37.426Z,10.85
2023-11-16T23:38:06.200Z,11.88
2023-11-16T23:40:33.765Z,11.32
2023-11-16T23:43:01.141Z,11.23
2023-11-16T23:45:28.520Z,10.18
2023-11-16T23:47:57.774Z,9.93
2023-11-16T23:50:25.173Z,10.45
2023-11-16T23:52:52.978Z,10.57
2023-11-16T23:55:20.540Z,9.60
2023-11-16T23:57:47.862Z,9.65
